sensor_id;sensor_type;location;lat;lon;timestamp;temperature;humidity
69436;SHT31;56625;54.322;18.582;2024-03-02T00:00:53;8.56;83.25
69436;SHT31;56625;54.322;18.582;2024-03-02T00:03:42;8.56;83.20
69436;SHT31;56625;54.322;18.582;2024-03-02T00:06:11;8.56;83.22
69436;SHT31;56625;54.322;18.582;2024-03-02T00:08:40;8.54;83.22
69436;SHT31;56625;54.322;18.582;2024-03-02T00:11:08;8.53;83.22
69436;SHT31;56625;54.322;18.582;2024-03-02T00:13:38;8.51;83.22
69436;SHT31;56625;54.322;18.582;2024-03-02T00:16:07;8.50;83.28
69436;SHT31;56625;54.322;18.582;2024-03-02T00:18:35;8.49;83.30
69436;SHT31;56625;54.322;18.582;2024-03-02T00:21:05;8.49;83.35
69436;SHT31;56625;54.322;18.582;2024-03-02T00:23:37;8.48;83.41
69436;SHT31;56625;54.322;18.582;2024-03-02T00:26:06;8.47;83.49
69436;SHT31;56625;54.322;18.582;2024-03-02T00:28:36;8.48;83.54
69436;SHT31;56625;54.322;18.582;2024-03-02T00:33:42;8.43;83.70
69436;SHT31;56625;54.322;18.582;2024-03-02T00:36:15;8.42;83.79
69436;SHT31;56625;54.322;18.582;2024-03-02T00:38:51;8.41;83.76
69436;SHT31;56625;54.322;18.582;2024-03-02T00:41:23;8.39;83.77
69436;SHT31;56625;54.322;18.582;2024-03-02T00:46:29;8.38;83.75
69436;SHT31;56625;54.322;18.582;2024-03-02T00:49:03;8.37;83.72
69436;SHT31;56625;54.322;18.582;2024-03-02T00:51:39;8.37;83.71
69436;SHT31;56625;54.322;18.582;2024-03-02T00:54:08;8.38;83.77
69436;SHT31;56625;54.322;18.582;2024-03-02T00:56:38;8.34;83.70
69436;SHT31;56625;54.322;18.582;2024-03-02T00:59:06;8.31;83.79
69436;SHT31;56625;54.322;18.582;2024-03-02T01:01:34;8.30;83.87
69436;SHT31;56625;54.322;18.582;2024-03-02T01:04:02;8.28;83.91
69436;SHT31;56625;54.322;18.582;2024-03-02T01:06:31;8.28;83.92
69436;SHT31;56625;54.322;18.582;2024-03-02T01:08:59;8.28;83.98
69436;SHT31;56625;54.322;18.582;2024-03-02T01:11:28;8.26;83.97
69436;SHT31;56625;54.322;18.582;2024-03-02T01:13:57;8.25;83.99
69436;SHT31;56625;54.322;18.582;2024-03-02T01:16:25;8.24;84.05
69436;SHT31;56625;54.322;18.582;2024-03-02T01:18:54;8.23;84.15
69436;SHT31;56625;54.322;18.582;2024-03-02T01:21:22;8.21;84.22
69436;SHT31;56625;54.322;18.582;2024-03-02T01:23:50;8.20;84.32
69436;SHT31;56625;54.322;18.582;2024-03-02T01:26:18;8.20;84.38
69436;SHT31;56625;54.322;18.582;2024-03-02T01:28:46;8.21;84.40
69436;SHT31;56625;54.322;18.582;2024-03-02T01:31:14;8.20;84.47
69436;SHT31;56625;54.322;18.582;2024-03-02T01:33:43;8.19;84.54
69436;SHT31;56625;54.322;18.582;2024-03-02T01:36:11;8.16;84.62
69436;SHT31;56625;54.322;18.582;2024-03-02T01:38:39;8.15;84.65
69436;SHT31;56625;54.322;18.582;2024-03-02T01:41:07;8.14;84.73
69436;SHT31;56625;54.322;18.582;2024-03-02T01:43:35;8.11;84.78
69436;SHT31;56625;54.322;18.582;2024-03-02T01:46:08;8.10;84.80
69436;SHT31;56625;54.322;18.582;2024-03-02T01:48:37;8.09;84.84
69436;SHT31;56625;54.322;18.582;2024-03-02T01:51:06;8.09;84.90
69436;SHT31;56625;54.322;18.582;2024-03-02T01:53:35;8.08;84.83
69436;SHT31;56625;54.322;18.582;2024-03-02T01:56:03;8.10;84.82
69436;SHT31;56625;54.322;18.582;2024-03-02T01:58:31;8.08;84.81
69436;SHT31;56625;54.322;18.582;2024-03-02T02:00:59;8.08;84.84
69436;SHT31;56625;54.322;18.582;2024-03-02T02:03:28;8.07;84.90
69436;SHT31;56625;54.322;18.582;2024-03-02T02:05:56;8.07;84.90
69436;SHT31;56625;54.322;18.582;2024-03-02T02:08:27;8.06;84.89
69436;SHT31;56625;54.322;18.582;2024-03-02T02:10:55;8.06;84.88
69436;SHT31;56625;54.322;18.582;2024-03-02T02:13:25;8.07;84.90
69436;SHT31;56625;54.322;18.582;2024-03-02T02:15:53;8.08;84.90
69436;SHT31;56625;54.322;18.582;2024-03-02T02:18:22;8.06;84.92
69436;SHT31;56625;54.322;18.582;2024-03-02T02:20:50;8.04;85.00
69436;SHT31;56625;54.322;18.582;2024-03-02T02:23:19;8.03;85.10
69436;SHT31;56625;54.322;18.582;2024-03-02T02:25:47;8.02;85.12
69436;SHT31;56625;54.322;18.582;2024-03-02T02:28:15;8.01;85.20
69436;SHT31;56625;54.322;18.582;2024-03-02T02:30:43;8.01;85.20
69436;SHT31;56625;54.322;18.582;2024-03-02T02:33:11;7.99;85.29
69436;SHT31;56625;54.322;18.582;2024-03-02T02:35:40;7.97;85.30
69436;SHT31;56625;54.322;18.582;2024-03-02T02:38:08;7.98;85.33
69436;SHT31;56625;54.322;18.582;2024-03-02T02:40:36;7.96;85.37
69436;SHT31;56625;54.322;18.582;2024-03-02T02:43:04;7.95;85.40
69436;SHT31;56625;54.322;18.582;2024-03-02T02:45:32;7.96;85.40
69436;SHT31;56625;54.322;18.582;2024-03-02T02:48:00;7.96;85.41
69436;SHT31;56625;54.322;18.582;2024-03-02T02:50:30;7.96;85.40
69436;SHT31;56625;54.322;18.582;2024-03-02T02:52:58;7.96;85.40
69436;SHT31;56625;54.322;18.582;2024-03-02T02:55:26;7.95;85.41
69436;SHT31;56625;54.322;18.582;2024-03-02T02:57:54;7.93;85.48
69436;SHT31;56625;54.322;18.582;2024-03-02T03:00:23;7.92;85.50
69436;SHT31;56625;54.322;18.582;2024-03-02T03:02:51;7.91;85.54
69436;SHT31;56625;54.322;18.582;2024-03-02T03:05:19;7.90;85.59
69436;SHT31;56625;54.322;18.582;2024-03-02T03:07:48;7.89;85.60
69436;SHT31;56625;54.322;18.582;2024-03-02T03:10:18;7.89;85.66
69436;SHT31;56625;54.322;18.582;2024-03-02T03:12:48;7.89;85.70
69436;SHT31;56625;54.322;18.582;2024-03-02T03:15:17;7.88;85.72
69436;SHT31;56625;54.322;18.582;2024-03-02T03:17:45;7.88;85.72
69436;SHT31;56625;54.322;18.582;2024-03-02T03:20:15;7.89;85.75
69436;SHT31;56625;54.322;18.582;2024-03-02T03:22:43;7.89;85.74
69436;SHT31;56625;54.322;18.582;2024-03-02T03:25:11;7.89;85.75
69436;SHT31;56625;54.322;18.582;2024-03-02T03:27:40;7.87;85.78
69436;SHT31;56625;54.322;18.582;2024-03-02T03:30:10;7.86;85.81
69436;SHT31;56625;54.322;18.582;2024-03-02T03:32:38;7.84;85.80
69436;SHT31;56625;54.322;18.582;2024-03-02T03:35:07;7.85;85.87
69436;SHT31;56625;54.322;18.582;2024-03-02T03:37:36;7.84;85.86
69436;SHT31;56625;54.322;18.582;2024-03-02T03:40:04;7.83;85.89
69436;SHT31;56625;54.322;18.582;2024-03-02T03:42:41;7.85;85.91
69436;SHT31;56625;54.322;18.582;2024-03-02T03:45:09;7.83;85.90
69436;SHT31;56625;54.322;18.582;2024-03-02T03:47:38;7.81;85.91
69436;SHT31;56625;54.322;18.582;2024-03-02T03:50:06;7.81;85.98
69436;SHT31;56625;54.322;18.582;2024-03-02T03:52:35;7.81;85.95
69436;SHT31;56625;54.322;18.582;2024-03-02T03:55:03;7.81;85.92
69436;SHT31;56625;54.322;18.582;2024-03-02T03:57:33;7.81;85.98
69436;SHT31;56625;54.322;18.582;2024-03-02T04:00:02;7.84;85.98
69436;SHT31;56625;54.322;18.582;2024-03-02T04:02:32;7.83;85.90
69436;SHT31;56625;54.322;18.582;2024-03-02T04:05:00;7.83;85.92
69436;SHT31;56625;54.322;18.582;2024-03-02T04:07:28;7.80;85.98
69436;SHT31;56625;54.322;18.582;2024-03-02T04:09:57;7.77;86.10
69436;SHT31;56625;54.322;18.582;2024-03-02T04:12:25;7.76;86.11
69436;SHT31;56625;54.322;18.582;2024-03-02T04:14:53;7.76;86.12
69436;SHT31;56625;54.322;18.582;2024-03-02T04:17:22;7.76;86.17
69436;SHT31;56625;54.322;18.582;2024-03-02T04:19:50;7.74;86.16
69436;SHT31;56625;54.322;18.582;2024-03-02T04:22:18;7.76;86.20
69436;SHT31;56625;54.322;18.582;2024-03-02T04:24:52;7.75;86.14
69436;SHT31;56625;54.322;18.582;2024-03-02T04:27:20;7.75;86.10
69436;SHT31;56625;54.322;18.582;2024-03-02T04:29:48;7.76;86.10
69436;SHT31;56625;54.322;18.582;2024-03-02T04:32:16;7.76;86.11
69436;SHT31;56625;54.322;18.582;2024-03-02T04:34:45;7.75;86.11
69436;SHT31;56625;54.322;18.582;2024-03-02T04:37:13;7.70;86.20
69436;SHT31;56625;54.322;18.582;2024-03-02T04:39:42;7.70;86.26
69436;SHT31;56625;54.322;18.582;2024-03-02T04:42:10;7.68;86.28
69436;SHT31;56625;54.322;18.582;2024-03-02T04:44:38;7.68;86.30
69436;SHT31;56625;54.322;18.582;2024-03-02T04:47:06;7.68;86.30
69436;SHT31;56625;54.322;18.582;2024-03-02T04:49:34;7.67;86.30
69436;SHT31;56625;54.322;18.582;2024-03-02T04:52:03;7.66;86.30
69436;SHT31;56625;54.322;18.582;2024-03-02T04:54:31;7.65;86.27
69436;SHT31;56625;54.322;18.582;2024-03-02T04:57:00;7.64;86.30
69436;SHT31;56625;54.322;18.582;2024-03-02T04:59:28;7.64;86.30
69436;SHT31;56625;54.322;18.582;2024-03-02T05:01:56;7.65;86.30
69436;SHT31;56625;54.322;18.582;2024-03-02T05:04:24;7.64;86.30
69436;SHT31;56625;54.322;18.582;2024-03-02T05:06:52;7.64;86.27
69436;SHT31;56625;54.322;18.582;2024-03-02T05:09:23;7.64;86.26
69436;SHT31;56625;54.322;18.582;2024-03-02T05:11:51;7.63;86.24
69436;SHT31;56625;54.322;18.582;2024-03-02T05:14:57;7.63;86.26
69436;SHT31;56625;54.322;18.582;2024-03-02T05:17:25;7.63;86.26
69436;SHT31;56625;54.322;18.582;2024-03-02T05:19:53;7.64;86.22
69436;SHT31;56625;54.322;18.582;2024-03-02T05:22:22;7.65;86.20
69436;SHT31;56625;54.322;18.582;2024-03-02T05:24:50;7.64;86.20
69436;SHT31;56625;54.322;18.582;2024-03-02T05:27:18;7.64;86.20
69436;SHT31;56625;54.322;18.582;2024-03-02T05:29:46;7.64;86.20
69436;SHT31;56625;54.322;18.582;2024-03-02T05:32:14;7.64;86.20
69436;SHT31;56625;54.322;18.582;2024-03-02T05:34:42;7.66;86.23
69436;SHT31;56625;54.322;18.582;2024-03-02T05:37:10;7.67;86.14
69436;SHT31;56625;54.322;18.582;2024-03-02T05:39:39;7.66;86.12
69436;SHT31;56625;54.322;18.582;2024-03-02T05:42:07;7.66;86.16
69436;SHT31;56625;54.322;18.582;2024-03-02T05:44:35;7.64;86.20
69436;SHT31;56625;54.322;18.582;2024-03-02T05:47:04;7.63;86.20
69436;SHT31;56625;54.322;18.582;2024-03-02T05:49:33;7.64;86.23
69436;SHT31;56625;54.322;18.582;2024-03-02T05:52:01;7.66;86.24
69436;SHT31;56625;54.322;18.582;2024-03-02T05:54:29;7.64;86.27
69436;SHT31;56625;54.322;18.582;2024-03-02T05:56:57;7.64;86.30
69436;SHT31;56625;54.322;18.582;2024-03-02T05:59:44;7.62;86.33
69436;SHT31;56625;54.322;18.582;2024-03-02T06:02:12;7.62;86.39
69436;SHT31;56625;54.322;18.582;2024-03-02T06:04:40;7.60;86.44
69436;SHT31;56625;54.322;18.582;2024-03-02T06:07:08;7.57;86.51
69436;SHT31;56625;54.322;18.582;2024-03-02T06:09:36;7.56;86.57
69436;SHT31;56625;54.322;18.582;2024-03-02T06:12:05;7.56;86.62
69436;SHT31;56625;54.322;18.582;2024-03-02T06:14:33;7.55;86.64
69436;SHT31;56625;54.322;18.582;2024-03-02T06:17:01;7.55;86.67
69436;SHT31;56625;54.322;18.582;2024-03-02T06:19:29;7.56;86.71
69436;SHT31;56625;54.322;18.582;2024-03-02T06:21:58;7.56;86.72
69436;SHT31;56625;54.322;18.582;2024-03-02T06:24:26;7.55;86.78
69436;SHT31;56625;54.322;18.582;2024-03-02T06:26:54;7.55;86.77
69436;SHT31;56625;54.322;18.582;2024-03-02T06:29:22;7.54;86.74
69436;SHT31;56625;54.322;18.582;2024-03-02T06:31:50;7.56;86.73
69436;SHT31;56625;54.322;18.582;2024-03-02T06:34:21;7.57;86.71
69436;SHT31;56625;54.322;18.582;2024-03-02T06:36:50;7.57;86.68
69436;SHT31;56625;54.322;18.582;2024-03-02T06:39:18;7.58;86.70
69436;SHT31;56625;54.322;18.582;2024-03-02T06:41:46;7.61;86.71
69436;SHT31;56625;54.322;18.582;2024-03-02T06:44:17;7.63;86.64
69436;SHT31;56625;54.322;18.582;2024-03-02T06:46:45;7.65;86.56
69436;SHT31;56625;54.322;18.582;2024-03-02T06:49:14;7.66;86.41
69436;SHT31;56625;54.322;18.582;2024-03-02T06:51:42;7.66;86.31
69436;SHT31;56625;54.322;18.582;2024-03-02T06:54:10;7.69;86.32
69436;SHT31;56625;54.322;18.582;2024-03-02T06:56:38;7.72;86.29
69436;SHT31;56625;54.322;18.582;2024-03-02T06:59:06;7.75;86.15
69436;SHT31;56625;54.322;18.582;2024-03-02T07:01:35;7.79;86.04
69436;SHT31;56625;54.322;18.582;2024-03-02T07:04:03;7.85;85.91
69436;SHT31;56625;54.322;18.582;2024-03-02T07:06:34;7.89;85.81
69436;SHT31;56625;54.322;18.582;2024-03-02T07:09:02;7.95;85.63
69436;SHT31;56625;54.322;18.582;2024-03-02T07:11:30;7.99;85.41
69436;SHT31;56625;54.322;18.582;2024-03-02T07:13:58;8.05;85.32
69436;SHT31;56625;54.322;18.582;2024-03-02T07:16:26;8.10;85.08
69436;SHT31;56625;54.322;18.582;2024-03-02T07:19:01;8.14;84.91
69436;SHT31;56625;54.322;18.582;2024-03-02T07:21:30;8.18;84.76
69436;SHT31;56625;54.322;18.582;2024-03-02T07:23:58;8.23;84.66
69436;SHT31;56625;54.322;18.582;2024-03-02T07:26:27;8.27;84.55
69436;SHT31;56625;54.322;18.582;2024-03-02T07:28:58;8.29;84.34
69436;SHT31;56625;54.322;18.582;2024-03-02T07:31:26;8.26;83.97
69436;SHT31;56625;54.322;18.582;2024-03-02T07:33:54;8.21;84.04
69436;SHT31;56625;54.322;18.582;2024-03-02T07:36:22;8.20;84.20
69436;SHT31;56625;54.322;18.582;2024-03-02T07:38:51;8.19;84.20
69436;SHT31;56625;54.322;18.582;2024-03-02T07:41:19;8.19;84.25
69436;SHT31;56625;54.322;18.582;2024-03-02T07:43:48;8.20;84.36
69436;SHT31;56625;54.322;18.582;2024-03-02T07:46:16;8.16;84.29
69436;SHT31;56625;54.322;18.582;2024-03-02T07:48:45;8.10;84.43
69436;SHT31;56625;54.322;18.582;2024-03-02T07:51:13;8.05;84.49
69436;SHT31;56625;54.322;18.582;2024-03-02T07:53:41;7.99;84.45
69436;SHT31;56625;54.322;18.582;2024-03-02T07:56:11;7.96;84.54
69436;SHT31;56625;54.322;18.582;2024-03-02T07:58:39;7.96;84.60
69436;SHT31;56625;54.322;18.582;2024-03-02T08:01:09;7.97;84.55
69436;SHT31;56625;54.322;18.582;2024-03-02T08:03:38;7.95;84.49
69436;SHT31;56625;54.322;18.582;2024-03-02T08:06:06;7.95;84.60
69436;SHT31;56625;54.322;18.582;2024-03-02T08:08:35;7.95;84.68
69436;SHT31;56625;54.322;18.582;2024-03-02T08:11:03;7.95;84.67
69436;SHT31;56625;54.322;18.582;2024-03-02T08:13:31;7.93;84.54
69436;SHT31;56625;54.322;18.582;2024-03-02T08:15:59;7.90;84.61
69436;SHT31;56625;54.322;18.582;2024-03-02T08:18:27;7.90;84.69
69436;SHT31;56625;54.322;18.582;2024-03-02T08:20:55;7.93;84.79
69436;SHT31;56625;54.322;18.582;2024-03-02T08:23:23;7.98;84.72
69436;SHT31;56625;54.322;18.582;2024-03-02T08:25:51;8.02;84.61
69436;SHT31;56625;54.322;18.582;2024-03-02T08:28:19;8.10;84.55
69436;SHT31;56625;54.322;18.582;2024-03-02T08:30:48;8.16;84.33
69436;SHT31;56625;54.322;18.582;2024-03-02T08:33:16;8.21;84.11
69436;SHT31;56625;54.322;18.582;2024-03-02T08:35:44;8.27;84.05
69436;SHT31;56625;54.322;18.582;2024-03-02T08:38:12;8.33;83.87
69436;SHT31;56625;54.322;18.582;2024-03-02T08:40:41;8.36;83.70
69436;SHT31;56625;54.322;18.582;2024-03-02T08:43:09;8.36;83.52
69436;SHT31;56625;54.322;18.582;2024-03-02T08:45:37;8.37;83.46
69436;SHT31;56625;54.322;18.582;2024-03-02T08:48:08;8.38;83.48
69436;SHT31;56625;54.322;18.582;2024-03-02T08:50:42;8.37;83.35
69436;SHT31;56625;54.322;18.582;2024-03-02T08:53:13;8.34;83.23
69436;SHT31;56625;54.322;18.582;2024-03-02T08:55:46;8.34;83.33
69436;SHT31;56625;54.322;18.582;2024-03-02T08:58:14;8.32;83.25
69436;SHT31;56625;54.322;18.582;2024-03-02T09:00:42;8.29;83.22
69436;SHT31;56625;54.322;18.582;2024-03-02T09:03:12;8.27;83.36
69436;SHT31;56625;54.322;18.582;2024-03-02T09:05:40;8.26;83.33
69436;SHT31;56625;54.322;18.582;2024-03-02T09:08:08;8.24;83.43
69436;SHT31;56625;54.322;18.582;2024-03-02T09:10:36;8.24;83.60
69436;SHT31;56625;54.322;18.582;2024-03-02T09:13:07;8.29;83.70
69436;SHT31;56625;54.322;18.582;2024-03-02T09:15:35;8.32;83.61
69436;SHT31;56625;54.322;18.582;2024-03-02T09:18:05;8.32;83.42
69436;SHT31;56625;54.322;18.582;2024-03-02T09:20:34;8.32;83.50
69436;SHT31;56625;54.322;18.582;2024-03-02T09:23:02;8.35;83.51
69436;SHT31;56625;54.322;18.582;2024-03-02T09:25:31;8.37;83.47
69436;SHT31;56625;54.322;18.582;2024-03-02T09:27:59;8.40;83.39
69436;SHT31;56625;54.322;18.582;2024-03-02T09:30:27;8.42;83.42
69436;SHT31;56625;54.322;18.582;2024-03-02T09:32:55;8.45;83.33
69436;SHT31;56625;54.322;18.582;2024-03-02T09:35:43;8.47;83.09
69436;SHT31;56625;54.322;18.582;2024-03-02T09:38:12;8.45;83.08
69436;SHT31;56625;54.322;18.582;2024-03-02T09:40:41;8.43;83.10
69436;SHT31;56625;54.322;18.582;2024-03-02T09:43:10;8.42;83.15
69436;SHT31;56625;54.322;18.582;2024-03-02T09:45:39;8.42;83.28
69436;SHT31;56625;54.322;18.582;2024-03-02T09:48:08;8.45;83.33
69436;SHT31;56625;54.322;18.582;2024-03-02T09:50:36;8.50;83.43
69436;SHT31;56625;54.322;18.582;2024-03-02T09:53:04;8.59;83.54
69436;SHT31;56625;54.322;18.582;2024-03-02T09:55:36;8.68;83.23
69436;SHT31;56625;54.322;18.582;2024-03-02T09:58:04;8.74;83.06
69436;SHT31;56625;54.322;18.582;2024-03-02T10:00:32;8.78;82.94
69436;SHT31;56625;54.322;18.582;2024-03-02T10:03:01;8.85;82.98
69436;SHT31;56625;54.322;18.582;2024-03-02T10:05:29;8.88;82.34
69436;SHT31;56625;54.322;18.582;2024-03-02T10:08:00;8.85;82.01
69436;SHT31;56625;54.322;18.582;2024-03-02T10:10:40;8.86;82.11
69436;SHT31;56625;54.322;18.582;2024-03-02T10:13:11;8.88;82.10
69436;SHT31;56625;54.322;18.582;2024-03-02T10:15:41;8.97;82.37
69436;SHT31;56625;54.322;18.582;2024-03-02T10:18:10;9.09;82.11
69436;SHT31;56625;54.322;18.582;2024-03-02T10:20:40;9.15;81.74
69436;SHT31;56625;54.322;18.582;2024-03-02T10:23:09;9.19;81.49
69436;SHT31;56625;54.322;18.582;2024-03-02T10:25:43;9.25;81.18
69436;SHT31;56625;54.322;18.582;2024-03-02T10:28:24;9.31;81.13
69436;SHT31;56625;54.322;18.582;2024-03-02T10:30:55;9.40;80.99
69436;SHT31;56625;54.322;18.582;2024-03-02T10:33:25;9.51;80.83
69436;SHT31;56625;54.322;18.582;2024-03-02T10:35:55;9.60;80.38
69436;SHT31;56625;54.322;18.582;2024-03-02T10:38:23;9.69;80.44
69436;SHT31;56625;54.322;18.582;2024-03-02T10:40:52;9.80;80.45
69436;SHT31;56625;54.322;18.582;2024-03-02T10:43:22;9.95;80.27
69436;SHT31;56625;54.322;18.582;2024-03-02T10:45:54;10.14;79.84
69436;SHT31;56625;54.322;18.582;2024-03-02T10:48:25;10.33;79.65
69436;SHT31;56625;54.322;18.582;2024-03-02T10:50:55;10.47;79.14
69436;SHT31;56625;54.322;18.582;2024-03-02T10:53:26;10.52;78.26
69436;SHT31;56625;54.322;18.582;2024-03-02T10:55:56;10.54;78.03
69436;SHT31;56625;54.322;18.582;2024-03-02T10:58:31;10.65;78.18
69436;SHT31;56625;54.322;18.582;2024-03-02T11:01:02;10.81;78.02
69436;SHT31;56625;54.322;18.582;2024-03-02T11:03:33;10.99;77.91
69436;SHT31;56625;54.322;18.582;2024-03-02T11:06:07;11.13;77.53
69436;SHT31;56625;54.322;18.582;2024-03-02T11:08:36;11.22;76.68
69436;SHT31;56625;54.322;18.582;2024-03-02T11:11:10;11.17;75.55
69436;SHT31;56625;54.322;18.582;2024-03-02T11:13:49;11.21;75.97
69436;SHT31;56625;54.322;18.582;2024-03-02T11:16:32;11.30;75.92
69436;SHT31;56625;54.322;18.582;2024-03-02T11:19:11;11.41;75.60
69436;SHT31;56625;54.322;18.582;2024-03-02T11:21:44;11.44;75.28
69436;SHT31;56625;54.322;18.582;2024-03-02T11:26:51;11.59;75.20
69436;SHT31;56625;54.322;18.582;2024-03-02T11:32:03;11.56;74.55
69436;SHT31;56625;54.322;18.582;2024-03-02T11:34:42;11.57;74.81
69436;SHT31;56625;54.322;18.582;2024-03-02T11:37:14;11.67;75.17
69436;SHT31;56625;54.322;18.582;2024-03-02T11:39:51;11.72;74.39
69436;SHT31;56625;54.322;18.582;2024-03-02T11:42:22;11.73;74.28
69436;SHT31;56625;54.322;18.582;2024-03-02T11:44:50;11.70;74.04
69436;SHT31;56625;54.322;18.582;2024-03-02T11:47:18;11.67;74.37
69436;SHT31;56625;54.322;18.582;2024-03-02T11:49:50;11.67;74.21
69436;SHT31;56625;54.322;18.582;2024-03-02T11:52:19;11.62;74.43
69436;SHT31;56625;54.322;18.582;2024-03-02T11:54:47;11.66;74.72
69436;SHT31;56625;54.322;18.582;2024-03-02T11:57:20;11.60;74.14
69436;SHT31;56625;54.322;18.582;2024-03-02T11:59:53;11.48;74.34
69436;SHT31;56625;54.322;18.582;2024-03-02T12:02:22;11.48;74.75
69436;SHT31;56625;54.322;18.582;2024-03-02T12:04:51;11.49;74.87
69436;SHT31;56625;54.322;18.582;2024-03-02T12:07:19;11.49;74.79
69436;SHT31;56625;54.322;18.582;2024-03-02T12:09:59;11.48;74.93
69436;SHT31;56625;54.322;18.582;2024-03-02T12:12:31;11.48;75.28
69436;SHT31;56625;54.322;18.582;2024-03-02T12:14:59;11.54;75.35
69436;SHT31;56625;54.322;18.582;2024-03-02T12:17:29;11.56;75.27
69436;SHT31;56625;54.322;18.582;2024-03-02T12:19:57;11.59;75.38
69436;SHT31;56625;54.322;18.582;2024-03-02T12:22:26;11.60;74.95
69436;SHT31;56625;54.322;18.582;2024-03-02T12:24:54;11.61;75.08
69436;SHT31;56625;54.322;18.582;2024-03-02T12:27:22;11.59;75.05
69436;SHT31;56625;54.322;18.582;2024-03-02T12:29:50;11.55;75.19
69436;SHT31;56625;54.322;18.582;2024-03-02T12:32:19;11.54;75.10
69436;SHT31;56625;54.322;18.582;2024-03-02T12:34:47;11.53;75.30
69436;SHT31;56625;54.322;18.582;2024-03-02T12:37:16;11.52;75.23
69436;SHT31;56625;54.322;18.582;2024-03-02T12:39:47;11.50;75.45
69436;SHT31;56625;54.322;18.582;2024-03-02T12:42:15;11.47;75.44
69436;SHT31;56625;54.322;18.582;2024-03-02T12:44:43;11.41;75.77
69436;SHT31;56625;54.322;18.582;2024-03-02T12:47:11;11.42;76.04
69436;SHT31;56625;54.322;18.582;2024-03-02T12:49:41;11.48;76.02
69436;SHT31;56625;54.322;18.582;2024-03-02T12:52:11;11.44;75.78
69436;SHT31;56625;54.322;18.582;2024-03-02T12:54:40;11.41;76.03
69436;SHT31;56625;54.322;18.582;2024-03-02T12:57:09;11.44;76.12
69436;SHT31;56625;54.322;18.582;2024-03-02T12:59:37;11.45;76.14
69436;SHT31;56625;54.322;18.582;2024-03-02T13:02:05;11.49;76.33
69436;SHT31;56625;54.322;18.582;2024-03-02T13:04:34;11.56;75.87
69436;SHT31;56625;54.322;18.582;2024-03-02T13:07:02;11.59;75.72
69436;SHT31;56625;54.322;18.582;2024-03-02T13:09:31;11.62;75.97
69436;SHT31;56625;54.322;18.582;2024-03-02T13:12:01;11.66;75.60
69436;SHT31;56625;54.322;18.582;2024-03-02T13:14:32;11.65;75.66
69436;SHT31;56625;54.322;18.582;2024-03-02T13:17:01;11.65;75.49
69436;SHT31;56625;54.322;18.582;2024-03-02T13:19:31;11.60;75.49
69436;SHT31;56625;54.322;18.582;2024-03-02T13:22:00;11.62;75.75
69436;SHT31;56625;54.322;18.582;2024-03-02T13:24:30;11.64;75.62
69436;SHT31;56625;54.322;18.582;2024-03-02T13:26:59;11.68;75.56
69436;SHT31;56625;54.322;18.582;2024-03-02T13:29:27;11.72;75.58
69436;SHT31;56625;54.322;18.582;2024-03-02T13:31:55;11.74;75.50
69436;SHT31;56625;54.322;18.582;2024-03-02T13:34:25;11.74;75.32
69436;SHT31;56625;54.322;18.582;2024-03-02T13:36:53;11.75;75.35
69436;SHT31;56625;54.322;18.582;2024-03-02T13:39:21;11.76;75.38
69436;SHT31;56625;54.322;18.582;2024-03-02T13:41:49;11.80;75.23
69436;SHT31;56625;54.322;18.582;2024-03-02T13:44:25;11.79;75.06
69436;SHT31;56625;54.322;18.582;2024-03-02T13:46:53;11.77;75.26
69436;SHT31;56625;54.322;18.582;2024-03-02T13:49:21;11.77;75.19
69436;SHT31;56625;54.322;18.582;2024-03-02T13:51:50;11.73;75.16
69436;SHT31;56625;54.322;18.582;2024-03-02T13:54:19;11.73;75.26
69436;SHT31;56625;54.322;18.582;2024-03-02T13:56:47;11.72;75.33
69436;SHT31;56625;54.322;18.582;2024-03-02T13:59:15;11.68;75.52
69436;SHT31;56625;54.322;18.582;2024-03-02T14:01:44;11.70;75.48
69436;SHT31;56625;54.322;18.582;2024-03-02T14:04:12;11.71;75.52
69436;SHT31;56625;54.322;18.582;2024-03-02T14:06:40;11.70;75.48
69436;SHT31;56625;54.322;18.582;2024-03-02T14:09:11;11.69;75.17
69436;SHT31;56625;54.322;18.582;2024-03-02T14:11:39;11.69;75.18
69436;SHT31;56625;54.322;18.582;2024-03-02T14:14:07;11.67;74.96
69436;SHT31;56625;54.322;18.582;2024-03-02T14:16:35;11.65;74.81
69436;SHT31;56625;54.322;18.582;2024-03-02T14:19:03;11.62;74.86
69436;SHT31;56625;54.322;18.582;2024-03-02T14:21:34;11.58;74.88
69436;SHT31;56625;54.322;18.582;2024-03-02T14:24:03;11.53;75.15
69436;SHT31;56625;54.322;18.582;2024-03-02T14:26:32;11.49;75.25
69436;SHT31;56625;54.322;18.582;2024-03-02T14:29:01;11.46;75.49
69436;SHT31;56625;54.322;18.582;2024-03-02T14:31:29;11.42;75.63
69436;SHT31;56625;54.322;18.582;2024-03-02T14:33:59;11.35;75.92
69436;SHT31;56625;54.322;18.582;2024-03-02T14:36:28;11.30;76.22
69436;SHT31;56625;54.322;18.582;2024-03-02T14:38:56;11.25;76.50
69436;SHT31;56625;54.322;18.582;2024-03-02T14:41:25;11.21;76.68
69436;SHT31;56625;54.322;18.582;2024-03-02T14:43:53;11.15;76.98
69436;SHT31;56625;54.322;18.582;2024-03-02T14:46:21;11.11;77.23
69436;SHT31;56625;54.322;18.582;2024-03-02T14:48:49;11.05;77.50
69436;SHT31;56625;54.322;18.582;2024-03-02T14:51:17;11.03;77.70
69436;SHT31;56625;54.322;18.582;2024-03-02T14:53:45;11.03;77.80
69436;SHT31;56625;54.322;18.582;2024-03-02T14:56:13;10.96;77.76
69436;SHT31;56625;54.322;18.582;2024-03-02T14:58:42;10.89;77.93
69436;SHT31;56625;54.322;18.582;2024-03-02T15:01:13;10.85;78.14
69436;SHT31;56625;54.322;18.582;2024-03-02T15:03:41;10.83;78.10
69436;SHT31;56625;54.322;18.582;2024-03-02T15:06:10;10.80;78.17
69436;SHT31;56625;54.322;18.582;2024-03-02T15:08:38;10.78;78.39
69436;SHT31;56625;54.322;18.582;2024-03-02T15:11:09;10.75;78.49
69436;SHT31;56625;54.322;18.582;2024-03-02T15:13:38;10.74;78.64
69436;SHT31;56625;54.322;18.582;2024-03-02T15:16:07;10.72;78.64
69436;SHT31;56625;54.322;18.582;2024-03-02T15:18:35;10.69;78.77
69436;SHT31;56625;54.322;18.582;2024-03-02T15:21:03;10.69;78.83
69436;SHT31;56625;54.322;18.582;2024-03-02T15:23:32;10.66;78.94
69436;SHT31;56625;54.322;18.582;2024-03-02T15:26:00;10.66;78.93
69436;SHT31;56625;54.322;18.582;2024-03-02T15:28:28;10.66;79.00
69436;SHT31;56625;54.322;18.582;2024-03-02T15:30:56;10.65;79.01
69436;SHT31;56625;54.322;18.582;2024-03-02T15:33:25;10.64;79.13
69436;SHT31;56625;54.322;18.582;2024-03-02T15:36:00;10.63;79.20
69436;SHT31;56625;54.322;18.582;2024-03-02T15:38:29;10.60;79.27
69436;SHT31;56625;54.322;18.582;2024-03-02T15:41:03;10.58;79.39
69436;SHT31;56625;54.322;18.582;2024-03-02T15:43:32;10.58;79.42
69436;SHT31;56625;54.322;18.582;2024-03-02T15:46:03;10.55;79.47
69436;SHT31;56625;54.322;18.582;2024-03-02T15:48:32;10.51;79.60